createdAt,value
2022-10-17T00:02:23.692Z,99285.66
2022-10-17T00:04:55.949Z,99285.23
2022-10-17T00:07:28.966Z,99288.83
2022-10-17T00:10:01.529Z,99290.77
2022-10-17T00:12:33.789Z,99293.82
2022-10-17T00:15:08.090Z,99291.80
2022-10-17T00:17:40.393Z,99289.84
2022-10-17T00:20:14.017Z,99291.34
2022-10-17T00:22:46.227Z,99287.61
2022-10-17T00:25:18.996Z,99297.82
2022-10-17T00:27:51.021Z,99296.67
2022-10-17T00:30:28.238Z,99289.05
2022-10-17T00:33:00.201Z,99289.63
2022-10-17T00:35:32.933Z,99285.13
2022-10-17T00:38:05.007Z,99282.58
2022-10-17T00:40:37.939Z,99281.95
2022-10-17T00:43:16.587Z,99283.86
2022-10-17T00:45:48.936Z,99288.27
2022-10-17T00:48:23.456Z,99289.45
2022-10-17T00:50:56.080Z,99288.33
2022-10-17T00:53:28.699Z,99292.79
2022-10-17T00:56:00.745Z,99295.66
2022-10-17T00:58:32.989Z,99296.64
2022-10-17T01:01:07.650Z,99296.28
2022-10-17T01:03:40.259Z,99299.98
2022-10-17T01:06:12.247Z,99298.39
2022-10-17T01:08:44.250Z,99300.67
2022-10-17T01:11:34.533Z,99303.02
2022-10-17T01:14:14.751Z,99309.91
2022-10-17T01:16:53.333Z,99313.73
2022-10-17T01:19:49.869Z,99316.85
2022-10-17T01:22:28.442Z,99316.38
2022-10-17T01:25:29.630Z,99323.54
2022-10-17T01:28:20.029Z,99325.73
2022-10-17T01:31:07.523Z,99329.08
2022-10-17T01:33:52.793Z,99328.53
2022-10-17T01:36:37.444Z,99330.91
2022-10-17T01:39:17.260Z,99334.25
2022-10-17T01:41:58.517Z,99329.09
2022-10-17T01:44:38.376Z,99323.20
2022-10-17T01:47:16.449Z,99320.06
2022-10-17T01:49:50.988Z,99315.73
2022-10-17T01:52:27.467Z,99319.85
2022-10-17T01:55:04.255Z,99321.48
2022-10-17T01:57:40.113Z,99320.73
2022-10-17T02:00:18.984Z,99318.75
2022-10-17T02:03:00.001Z,99311.66
2022-10-17T02:05:36.838Z,99307.44
2022-10-17T02:08:09.581Z,99308.10
2022-10-17T02:10:44.990Z,99308.20
2022-10-17T02:13:27.907Z,99308.42
2022-10-17T02:16:14.370Z,99311.90
2022-10-17T02:19:09.044Z,99316.90
2022-10-17T02:21:52.712Z,99318.46
2022-10-17T02:24:34.525Z,99320.23
2022-10-17T02:27:13.142Z,99327.69
2022-10-17T02:29:49.595Z,99328.80
2022-10-17T02:32:26.540Z,99316.67
2022-10-17T02:34:59.869Z,99318.84
2022-10-17T02:37:34.823Z,99317.13
2022-10-17T02:40:09.958Z,99314.79
2022-10-17T02:42:46.574Z,99317.01
2022-10-17T02:45:18.806Z,99319.23
2022-10-17T02:47:59.090Z,99325.95
2022-10-17T02:53:54.655Z,99323.55
2022-10-17T02:56:28.441Z,99327.48
2022-10-17T02:59:04.080Z,99329.54
2022-10-17T03:01:37.891Z,99333.65
2022-10-17T03:04:13.178Z,99333.10
2022-10-17T03:06:49.598Z,99336.36
2022-10-17T03:09:23.387Z,99339.89
2022-10-17T03:11:56.116Z,99344.23
2022-10-17T03:14:28.402Z,99347.92
2022-10-17T03:17:00.487Z,99348.35
2022-10-17T03:19:32.957Z,99349.40
2022-10-17T03:22:05.056Z,99346.48
2022-10-17T03:24:38.461Z,99345.09
2022-10-17T03:27:10.484Z,99346.54
2022-10-17T03:29:42.878Z,99352.79
2022-10-17T03:32:15.416Z,99352.21
2022-10-17T03:34:47.732Z,99348.67
2022-10-17T03:37:19.909Z,99352.36
2022-10-17T03:39:52.035Z,99354.10
2022-10-17T03:42:24.347Z,99354.48
2022-10-17T03:44:57.188Z,99352.10
2022-10-17T03:47:30.986Z,99347.30
2022-10-17T03:50:03.321Z,99351.51
2022-10-17T03:52:37.517Z,99358.25
2022-10-17T03:55:10.706Z,99359.42
2022-10-17T03:57:45.494Z,99361.27
2022-10-17T04:00:18.840Z,99365.55
2022-10-17T04:02:56.914Z,99366.40
2022-10-17T04:05:29.725Z,99364.92
2022-10-17T04:08:04.695Z,99365.91
2022-10-17T04:11:01.570Z,99369.15
2022-10-17T04:13:34.675Z,99371.23
2022-10-17T04:16:08.820Z,99368.61
2022-10-17T04:18:43.857Z,99374.77
2022-10-17T04:21:16.565Z,99378.65
2022-10-17T04:23:48.606Z,99373.97
2022-10-17T04:26:30.793Z,99372.75
2022-10-17T04:29:02.815Z,99373.19
2022-10-17T04:31:34.927Z,99373.20
2022-10-17T04:34:14.208Z,99372.48
2022-10-17T04:36:47.282Z,99379.96
2022-10-17T04:39:20.161Z,99381.05
2022-10-17T04:41:52.262Z,99380.61
2022-10-17T04:44:25.383Z,99382.61
2022-10-17T04:46:58.013Z,99380.61
2022-10-17T04:49:30.812Z,99381.93
2022-10-17T04:52:08.754Z,99384.98
2022-10-17T04:54:53.406Z,99382.38
2022-10-17T04:57:26.430Z,99379.23
2022-10-17T05:00:13.366Z,99376.54
2022-10-17T05:03:11.445Z,99377.50
2022-10-17T05:05:44.447Z,99374.45
2022-10-17T05:08:16.795Z,99372.48
2022-10-17T05:10:49.470Z,99372.30
2022-10-17T05:13:21.580Z,99375.78
2022-10-17T05:15:53.598Z,99379.63
2022-10-17T05:18:26.053Z,99377.48
2022-10-17T05:20:58.301Z,99377.20
2022-10-17T05:23:32.515Z,99376.58
2022-10-17T05:26:04.877Z,99379.29
2022-10-17T05:28:37.241Z,99386.40
2022-10-17T05:31:12.349Z,99387.07
2022-10-17T05:33:45.241Z,99392.77
2022-10-17T05:36:17.551Z,99400.65
2022-10-17T05:38:53.269Z,99406.86
2022-10-17T05:41:25.712Z,99409.56
2022-10-17T05:44:04.579Z,99417.94
2022-10-17T05:46:47.219Z,99422.11
2022-10-17T05:49:32.214Z,99426.77
2022-10-17T05:52:06.391Z,99428.52
2022-10-17T05:54:42.904Z,99427.95
2022-10-17T05:57:15.105Z,99426.05
2022-10-17T05:59:48.279Z,99426.89
2022-10-17T06:02:24.683Z,99425.52
2022-10-17T06:04:56.901Z,99425.52
2022-10-17T06:07:29.695Z,99430.76
2022-10-17T06:10:02.252Z,99432.38
2022-10-17T06:12:34.807Z,99434.38
2022-10-17T06:15:08.221Z,99440.18
2022-10-17T06:17:40.742Z,99445.08
2022-10-17T06:20:13.627Z,99446.73
2022-10-17T06:22:45.637Z,99448.90
2022-10-17T06:25:22.906Z,99451.48
2022-10-17T06:27:55.148Z,99460.52
2022-10-17T06:30:29.193Z,99466.04
2022-10-17T06:33:01.341Z,99466.08
2022-10-17T06:35:34.467Z,99467.34
2022-10-17T06:38:07.408Z,99470.13
2022-10-17T06:40:41.331Z,99468.76
2022-10-17T06:43:13.636Z,99470.98
2022-10-17T06:46:08.684Z,99463.22
2022-10-17T06:48:56.328Z,99461.05
2022-10-17T06:51:48.969Z,99464.45
2022-10-17T06:54:24.388Z,99467.68
2022-10-17T06:57:15.168Z,99470.61
2022-10-17T07:00:04.690Z,99473.56
2022-10-17T07:02:45.456Z,99474.98
2022-10-17T07:05:19.292Z,99475.23
2022-10-17T07:07:52.013Z,99473.73
2022-10-17T07:10:24.735Z,99476.73
2022-10-17T07:12:56.812Z,99473.62
2022-10-17T07:15:28.984Z,99478.90
2022-10-17T07:18:01.022Z,99484.02
2022-10-17T07:20:33.484Z,99481.48
2022-10-17T07:23:07.262Z,99470.00
2022-10-17T07:25:40.343Z,99472.36
2022-10-17T07:28:44.336Z,99468.40
2022-10-17T07:31:27.858Z,99470.80
2022-10-17T07:34:01.967Z,99475.48
2022-10-17T07:36:34.094Z,99465.33
2022-10-17T07:39:08.840Z,99467.20
2022-10-17T07:41:42.328Z,99473.50
2022-10-17T07:44:15.357Z,99466.56
2022-10-17T07:46:50.913Z,99458.84
2022-10-17T07:49:23.588Z,99450.45
2022-10-17T07:51:55.760Z,99454.13
2022-10-17T07:54:28.238Z,99449.30
2022-10-17T07:57:00.248Z,99433.42
2022-10-17T07:59:33.948Z,99437.73
2022-10-17T08:02:08.113Z,99427.99
2022-10-17T08:04:40.166Z,99424.45
2022-10-17T08:07:21.768Z,99419.66
2022-10-17T08:09:56.584Z,99405.27
2022-10-17T08:12:36.714Z,99412.61
2022-10-17T08:15:11.495Z,99412.50
2022-10-17T08:17:44.088Z,99406.83
2022-10-17T08:20:16.397Z,99394.95
2022-10-17T08:22:54.557Z,99395.52
2022-10-17T08:25:26.864Z,99399.55
2022-10-17T08:27:59.313Z,99405.00
2022-10-17T08:30:31.491Z,99405.73
2022-10-17T08:33:05.983Z,99383.80
2022-10-17T08:35:38.055Z,99382.77
2022-10-17T08:38:12.296Z,99371.34
2022-10-17T08:40:50.114Z,99350.31
2022-10-17T08:43:58.905Z,99345.44
2022-10-17T08:46:41.932Z,99341.32
2022-10-17T08:58:34.071Z,99279.50
2022-10-17T09:10:59.766Z,99249.05
2022-10-17T09:13:46.278Z,99254.92
2022-10-17T09:16:32.641Z,99235.78
2022-10-17T09:19:09.911Z,99252.67
2022-10-17T09:21:47.385Z,99256.17
2022-10-17T09:24:25.869Z,99248.12
2022-10-17T09:26:58.352Z,99250.71
2022-10-17T09:29:36.958Z,99259.61
2022-10-17T09:32:19.273Z,99259.27
2022-10-17T09:34:51.234Z,99266.27
2022-10-17T09:37:31.004Z,99273.34
2022-10-17T09:40:03.161Z,99280.78
2022-10-17T09:42:36.718Z,99278.26
2022-10-17T09:45:24.811Z,99288.42
2022-10-17T09:48:09.182Z,99295.05
2022-10-17T09:50:42.616Z,99312.16
2022-10-17T09:53:21.975Z,99315.23
2022-10-17T09:56:00.111Z,99319.08
2022-10-17T09:58:44.928Z,99320.91
2022-10-17T10:01:24.152Z,99321.39
2022-10-17T10:04:11.716Z,99325.20
2022-10-17T10:07:01.537Z,99329.48
2022-10-17T10:09:38.142Z,99331.56
2022-10-17T10:12:21.681Z,99335.44
2022-10-17T10:14:56.567Z,99332.07
2022-10-17T10:17:41.808Z,99330.82
2022-10-17T10:20:33.301Z,99333.59
2022-10-17T10:23:22.388Z,99329.73
2022-10-17T10:25:58.644Z,99327.01
2022-10-17T10:28:33.469Z,99328.73
2022-10-17T10:31:09.050Z,99337.73
2022-10-17T10:33:49.476Z,99334.63
2022-10-17T10:36:24.307Z,99346.39
2022-10-17T10:39:01.329Z,99360.80
2022-10-17T10:41:46.967Z,99368.89
2022-10-17T10:44:24.384Z,99375.20
2022-10-17T10:47:17.048Z,99386.15
2022-10-17T10:49:52.993Z,99391.75
2022-10-17T10:52:32.767Z,99397.08
2022-10-17T10:55:23.272Z,99404.25
2022-10-17T10:57:59.891Z,99416.40
2022-10-17T11:00:36.242Z,99425.83
2022-10-17T11:03:18.028Z,99439.10
2022-10-17T11:05:57.603Z,99441.74
2022-10-17T11:08:39.134Z,99448.98
2022-10-17T11:11:19.971Z,99460.38
2022-10-17T11:14:03.786Z,99471.66
2022-10-17T11:16:41.339Z,99465.38
2022-10-17T11:19:20.127Z,99456.42
2022-10-17T11:22:04.111Z,99467.02
2022-10-17T11:24:43.639Z,99466.66
2022-10-17T11:27:15.760Z,99468.50
2022-10-17T11:29:48.208Z,99475.05
2022-10-17T11:32:27.448Z,99477.02
2022-10-17T11:35:04.826Z,99480.56
2022-10-17T11:37:42.895Z,99484.81
2022-10-17T11:40:24.609Z,99484.33
2022-10-17T11:43:01.270Z,99489.30
2022-10-17T11:45:43.811Z,99497.83
2022-10-17T11:48:23.502Z,99512.30
2022-10-17T11:54:01.143Z,99513.07
2022-10-17T11:56:43.673Z,99517.93
2022-10-17T11:59:48.300Z,99512.40
2022-10-17T12:02:33.118Z,99511.31
2022-10-17T12:05:20.990Z,99507.39
2022-10-17T12:08:01.258Z,99514.84
2022-10-17T12:10:37.359Z,99510.73
2022-10-17T12:13:57.898Z,99498.65
2022-10-17T12:16:46.878Z,99498.23
2022-10-17T12:19:30.987Z,99504.89
2022-10-17T12:22:07.375Z,99507.84
2022-10-17T12:24:43.152Z,99510.58
2022-10-17T12:27:36.034Z,99510.02
2022-10-17T12:30:23.613Z,99511.35
2022-10-17T12:33:22.413Z,99508.05
2022-10-17T12:36:47.082Z,99511.10
2022-10-17T12:39:54.361Z,99517.98
2022-10-17T12:42:52.345Z,99520.65
2022-10-17T12:45:49.511Z,99518.81
2022-10-17T12:48:56.137Z,99523.30
2022-10-17T12:51:37.915Z,99520.55
2022-10-17T12:54:16.378Z,99515.98
2022-10-17T12:56:50.633Z,99522.04
2022-10-17T12:59:27.082Z,99521.27
2022-10-17T13:02:03.031Z,99512.80
2022-10-17T13:04:39.012Z,99505.80
2022-10-17T13:07:21.822Z,99493.33
2022-10-17T13:09:54.192Z,99473.71
2022-10-17T13:12:28.623Z,99458.29
2022-10-17T13:15:01.289Z,99445.86
2022-10-17T13:17:34.884Z,99433.09
2022-10-17T13:20:25.660Z,99425.94
2022-10-17T13:23:01.561Z,99401.31
2022-10-17T13:25:37.630Z,99389.38
2022-10-17T13:28:15.744Z,99375.17
2022-10-17T13:30:49.968Z,99360.02
2022-10-17T13:33:35.988Z,99359.65
2022-10-17T13:36:18.912Z,99356.39
2022-10-17T13:38:51.202Z,99336.30
2022-10-17T13:41:36.911Z,99324.48
2022-10-17T13:44:15.964Z,99323.11
2022-10-17T13:46:48.870Z,99315.91
2022-10-17T13:49:31.589Z,99310.84
2022-10-17T13:52:06.182Z,99315.02
2022-10-17T13:54:42.742Z,99318.44
2022-10-17T13:57:24.048Z,99325.27
2022-10-17T13:59:59.239Z,99323.15
2022-10-17T14:02:34.364Z,99327.09
2022-10-17T14:05:19.042Z,99330.86
2022-10-17T14:08:11.388Z,99335.69
2022-10-17T14:10:45.393Z,99339.77
2022-10-17T14:13:24.596Z,99345.61
2022-10-17T14:15:58.681Z,99352.55
2022-10-17T14:18:36.380Z,99356.86
2022-10-17T14:24:30.197Z,99375.98
2022-10-17T14:27:04.890Z,99387.52
2022-10-17T14:29:53.935Z,99397.50
2022-10-17T14:32:25.948Z,99408.92
2022-10-17T14:35:17.900Z,99412.48
2022-10-17T14:37:54.463Z,99417.69
2022-10-17T14:40:28.714Z,99424.61
2022-10-17T14:43:04.246Z,99432.73
2022-10-17T14:45:39.320Z,99443.98
2022-10-17T14:48:15.584Z,99453.16
2022-10-17T14:51:11.531Z,99453.86
2022-10-17T14:53:45.125Z,99458.45
2022-10-17T14:56:27.606Z,99462.47
2022-10-17T14:59:00.103Z,99470.02
2022-10-17T15:01:32.072Z,99477.97
2022-10-17T15:04:04.866Z,99484.23
2022-10-17T15:06:37.512Z,99484.30
2022-10-17T15:09:10.617Z,99485.45
2022-10-17T15:11:42.558Z,99490.04
2022-10-17T15:14:14.577Z,99484.97
2022-10-17T15:16:46.593Z,99487.86
2022-10-17T15:19:18.513Z,99491.75
2022-10-17T15:21:59.630Z,99482.58
2022-10-17T15:24:36.534Z,99480.98
2022-10-17T15:27:20.652Z,99484.21
2022-10-17T15:30:00.606Z,99489.52
2022-10-17T15:32:33.505Z,99491.92
2022-10-17T15:35:05.695Z,99496.23
2022-10-17T15:37:38.272Z,99493.81
2022-10-17T15:40:15.212Z,99495.48
2022-10-17T15:42:47.503Z,99491.24
2022-10-17T15:45:22.178Z,99491.05
2022-10-17T15:47:56.572Z,99490.44
2022-10-17T15:50:30.439Z,99489.53
2022-10-17T15:53:03.056Z,99489.69
2022-10-17T15:55:36.882Z,99496.41
2022-10-17T15:58:12.041Z,99495.91
2022-10-17T16:00:44.635Z,99495.27
2022-10-17T16:03:16.728Z,99490.49
2022-10-17T16:05:49.161Z,99491.80
2022-10-17T16:08:21.414Z,99489.88
2022-10-17T16:10:54.205Z,99489.02
2022-10-17T16:13:27.500Z,99485.65
2022-10-17T16:15:59.580Z,99479.66
2022-10-17T16:18:31.490Z,99479.80
2022-10-17T16:21:03.645Z,99475.48
2022-10-17T16:23:35.569Z,99473.05
2022-10-17T16:26:07.641Z,99472.67
2022-10-17T16:28:43.611Z,99472.41
2022-10-17T16:31:24.903Z,99474.05
2022-10-17T16:33:58.724Z,99470.63
2022-10-17T16:36:30.751Z,99471.63
2022-10-17T16:39:02.924Z,99471.45
2022-10-17T16:41:36.978Z,99466.63
2022-10-17T16:44:16.471Z,99468.55
2022-10-17T16:46:48.556Z,99464.98
2022-10-17T16:49:23.819Z,99464.21
2022-10-17T16:51:55.806Z,99460.36
2022-10-17T16:54:30.735Z,99459.85
2022-10-17T16:57:02.796Z,99454.50
2022-10-17T16:59:34.701Z,99450.43
2022-10-17T17:02:07.298Z,99447.94
2022-10-17T17:04:39.522Z,99445.95
2022-10-17T17:07:11.509Z,99448.10
2022-10-17T17:09:43.629Z,99444.83
2022-10-17T17:12:15.986Z,99446.19
2022-10-17T17:14:47.998Z,99441.74
2022-10-17T17:17:30.642Z,99443.71
2022-10-17T17:20:10.490Z,99445.09
2022-10-17T17:22:42.929Z,99446.59
2022-10-17T17:25:17.975Z,99447.34
2022-10-17T17:27:50.517Z,99446.13
2022-10-17T17:30:23.051Z,99442.05
2022-10-17T17:32:55.078Z,99444.19
2022-10-17T17:35:27.563Z,99440.64
2022-10-17T17:37:59.856Z,99446.71
2022-10-17T17:40:34.510Z,99449.23
2022-10-17T17:43:07.099Z,99449.34
2022-10-17T17:45:39.204Z,99445.20
2022-10-17T17:48:12.344Z,99443.56
2022-10-17T17:50:45.329Z,99442.64
2022-10-17T17:53:18.950Z,99444.23
2022-10-17T17:56:01.433Z,99443.00
2022-10-17T17:58:34.008Z,99445.71
2022-10-17T18:01:14.868Z,99444.60
2022-10-17T18:03:48.750Z,99441.70
2022-10-17T18:06:21.755Z,99440.90
2022-10-17T18:08:58.466Z,99443.45
2022-10-17T18:11:30.974Z,99439.61
2022-10-17T18:14:05.651Z,99440.55
2022-10-17T18:16:38.687Z,99443.10
2022-10-17T18:19:12.594Z,99443.50
2022-10-17T18:21:44.889Z,99448.86
2022-10-17T18:24:16.856Z,99449.90
2022-10-17T18:26:48.919Z,99442.95
2022-10-17T18:29:20.898Z,99444.88
2022-10-17T18:31:53.053Z,99442.45
2022-10-17T18:34:25.045Z,99442.81
2022-10-17T18:36:58.927Z,99437.91
2022-10-17T18:39:30.986Z,99433.98
2022-10-17T18:42:02.906Z,99431.02
2022-10-17T18:44:35.221Z,99432.61
2022-10-17T18:47:07.744Z,99436.09
2022-10-17T18:49:39.762Z,99440.45
2022-10-17T18:52:11.748Z,99443.45
2022-10-17T18:54:43.765Z,99440.78
2022-10-17T18:57:16.078Z,99439.70
2022-10-17T18:59:47.999Z,99438.19
2022-10-17T19:02:19.841Z,99436.17
2022-10-17T19:04:51.828Z,99434.68
2022-10-17T19:07:24.826Z,99432.32
2022-10-17T19:09:56.811Z,99432.96
2022-10-17T19:12:28.763Z,99433.05
2022-10-17T19:15:00.862Z,99429.14
2022-10-17T19:17:33.203Z,99427.82
2022-10-17T19:20:06.091Z,99426.48
2022-10-17T19:22:38.165Z,99426.86
2022-10-17T19:25:11.152Z,99426.41
2022-10-17T19:27:44.666Z,99424.44
2022-10-17T19:30:17.155Z,99424.52
2022-10-17T19:32:49.570Z,99423.26
2022-10-17T19:35:21.590Z,99418.98
2022-10-17T19:37:53.775Z,99414.61
2022-10-17T19:40:25.801Z,99413.70
2022-10-17T19:42:58.478Z,99417.50
2022-10-17T19:45:30.504Z,99415.73
2022-10-17T19:48:02.819Z,99413.78
2022-10-17T19:50:36.676Z,99415.02
2022-10-17T19:53:11.437Z,99415.55
2022-10-17T19:55:43.439Z,99418.70
2022-10-17T19:58:15.413Z,99419.91
2022-10-17T20:00:51.280Z,99416.99
2022-10-17T20:03:23.789Z,99416.08
2022-10-17T20:05:57.127Z,99415.64
2022-10-17T20:08:29.187Z,99416.39
2022-10-17T20:11:04.966Z,99411.10
2022-10-17T20:13:38.218Z,99409.08
2022-10-17T20:16:14.111Z,99413.89
2022-10-17T20:18:46.940Z,99414.40
2022-10-17T20:21:24.481Z,99414.75
2022-10-17T20:23:56.717Z,99412.40
2022-10-17T20:26:44.389Z,99412.84
2022-10-17T20:29:21.265Z,99414.10
2022-10-17T20:31:54.262Z,99416.54
2022-10-17T20:34:26.309Z,99421.08
2022-10-17T20:36:58.544Z,99419.14
2022-10-17T20:39:31.274Z,99416.83
2022-10-17T20:42:03.272Z,99422.05
2022-10-17T20:44:35.371Z,99424.04
2022-10-17T20:47:16.048Z,99421.73
2022-10-17T20:49:53.556Z,99415.73
2022-10-17T20:52:25.635Z,99412.45
2022-10-17T20:54:57.943Z,99407.63
2022-10-17T20:57:30.193Z,99405.23
2022-10-17T21:00:02.918Z,99404.39
2022-10-17T21:02:35.117Z,99400.84
2022-10-17T21:05:08.100Z,99403.67
2022-10-17T21:07:40.042Z,99404.25
2022-10-17T21:10:34.397Z,99404.48
2022-10-17T21:13:04.797Z,99402.79
2022-10-17T21:15:36.728Z,99404.64
2022-10-17T21:18:08.743Z,99402.58
2022-10-17T21:20:40.882Z,99402.41
2022-10-17T21:23:12.842Z,99400.02
2022-10-17T21:25:47.818Z,99400.05
2022-10-17T21:28:20.316Z,99398.61
2022-10-17T21:30:52.237Z,99401.06
2022-10-17T21:33:24.258Z,99395.70
2022-10-17T21:35:58.808Z,99399.33
2022-10-17T21:38:31.498Z,99403.16
2022-10-17T21:41:04.224Z,99400.66
2022-10-17T21:43:36.458Z,99401.86
2022-10-17T21:46:10.941Z,99404.44
2022-10-17T21:48:43.545Z,99403.64
2022-10-17T21:51:17.590Z,99402.70
2022-10-17T21:53:49.867Z,99399.16
2022-10-17T21:56:32.590Z,99396.98
2022-10-17T21:59:05.833Z,99400.04
2022-10-17T22:01:39.785Z,99397.45
2022-10-17T22:04:15.005Z,99389.70
2022-10-17T22:06:48.388Z,99393.71
2022-10-17T22:09:24.774Z,99391.93
2022-10-17T22:11:57.811Z,99384.65
2022-10-17T22:14:30.238Z,99389.33
2022-10-17T22:17:03.028Z,99387.52
2022-10-17T22:19:35.401Z,99387.02
2022-10-17T22:22:07.351Z,99383.90
2022-10-17T22:24:39.565Z,99379.71
2022-10-17T22:27:13.089Z,99379.30
2022-10-17T22:29:47.593Z,99378.81
2022-10-17T22:32:22.370Z,99381.73
2022-10-17T22:34:54.985Z,99376.36
2022-10-17T22:37:26.900Z,99374.79
2022-10-17T22:39:58.824Z,99375.84
2022-10-17T22:42:31.682Z,99373.69
2022-10-17T22:45:04.795Z,99378.20
2022-10-17T22:47:36.864Z,99375.49
2022-10-17T22:50:09.911Z,99373.39
2022-10-17T22:52:41.966Z,99372.50
2022-10-17T22:55:14.632Z,99374.20
2022-10-17T22:57:46.618Z,99370.74
2022-10-17T23:00:19.045Z,99372.73
2022-10-17T23:02:53.924Z,99369.93
2022-10-17T23:05:25.863Z,99371.52
2022-10-17T23:07:57.756Z,99368.90
2022-10-17T23:10:31.640Z,99372.65
2022-10-17T23:13:03.976Z,99373.02
2022-10-17T23:15:37.817Z,99368.80
2022-10-17T23:18:10.781Z,99370.84
2022-10-17T23:20:42.891Z,99368.73
2022-10-17T23:23:15.383Z,99365.63
2022-10-17T23:25:47.653Z,99368.22
2022-10-17T23:28:20.071Z,99371.51
2022-10-17T23:30:52.051Z,99373.41
2022-10-17T23:33:23.944Z,99373.80
2022-10-17T23:35:55.922Z,99370.49
2022-10-17T23:38:27.804Z,99368.89
2022-10-17T23:41:00.030Z,99372.23
2022-10-17T23:43:34.176Z,99374.89
2022-10-17T23:46:07.498Z,99372.69
2022-10-17T23:48:40.886Z,99367.52
2022-10-17T23:51:13.402Z,99367.61
2022-10-17T23:53:46.368Z,99370.33
2022-10-17T23:56:18.544Z,99371.54
2022-10-17T23:58:52.029Z,99372.36
